createdAt,value
2018-02-20T00:00:18.836Z,0
2018-02-20T00:01:18.588Z,0
2018-02-20T00:02:18.863Z,0
2018-02-20T00:03:33.544Z,0
2018-02-20T00:04:18.888Z,0
2018-02-20T00:05:18.905Z,0
2018-02-20T00:06:18.916Z,0
2018-02-20T00:07:18.924Z,0
2018-02-20T00:08:18.700Z,0
2018-02-20T00:09:33.364Z,0
2018-02-20T00:10:33.640Z,0
2018-02-20T00:11:33.438Z,0
2018-02-20T00:12:18.738Z,0
2018-02-20T00:13:33.678Z,0
2018-02-20T00:14:18.766Z,0
2018-02-20T00:15:19.026Z,0
2018-02-20T00:16:19.042Z,0
2018-02-20T00:18:18.812Z,0
2018-02-20T00:19:19.091Z,0
2018-02-20T00:20:33.763Z,0
2018-02-20T00:21:19.101Z,0
2018-02-20T00:22:18.868Z,0
2018-02-20T00:23:33.542Z,0
2018-02-20T00:24:19.149Z,0
2018-02-20T00:25:19.171Z,0
2018-02-20T00:26:33.841Z,0
2018-02-20T00:27:33.852Z,0
2018-02-20T00:28:19.196Z,0
2018-02-20T00:29:33.616Z,0
2018-02-20T00:30:19.226Z,0
2018-02-20T00:31:18.981Z,0
2018-02-20T00:33:19.256Z,0
2018-02-20T00:34:19.273Z,0
2018-02-20T00:35:33.957Z,0
2018-02-20T00:36:19.295Z,0
2018-02-20T00:37:18.797Z,0
2018-02-20T00:38:19.324Z,0
2018-02-20T00:39:34.008Z,0
2018-02-20T00:41:33.883Z,0
2018-02-20T00:42:19.391Z,0
2018-02-20T00:43:19.384Z,0
2018-02-20T00:44:19.140Z,0
2018-02-20T00:45:19.422Z,0
2018-02-20T00:46:34.099Z,0
2018-02-20T00:47:19.439Z,0
2018-02-20T00:48:19.195Z,0
2018-02-20T00:49:19.465Z,0
2018-02-20T00:50:19.477Z,0
2018-02-20T00:51:19.230Z,0
2018-02-20T00:52:19.246Z,0
2018-02-20T00:53:19.265Z,0
2018-02-20T00:54:19.533Z,0
2018-02-20T00:56:33.958Z,0
2018-02-20T00:57:34.231Z,0
2018-02-20T00:58:33.987Z,0
2018-02-20T00:59:19.593Z,0
2018-02-20T01:00:34.270Z,0
2018-02-20T01:01:34.279Z,0
2018-02-20T01:03:19.644Z,0
2018-02-20T01:04:19.157Z,0
2018-02-20T01:05:19.412Z,0
2018-02-20T01:07:19.181Z,0
2018-02-20T01:08:19.705Z,0
2018-02-20T01:09:19.754Z,0
2018-02-20T01:10:34.392Z,0
2018-02-20T01:11:19.485Z,0
2018-02-20T01:12:19.753Z,0
2018-02-20T01:13:34.428Z,0
2018-02-20T01:14:34.189Z,0
2018-02-20T01:15:34.200Z,0
2018-02-20T01:17:34.480Z,0
2018-02-20T01:19:19.329Z,0
2018-02-20T01:20:19.856Z,0
2018-02-20T01:21:19.866Z,0
2018-02-20T01:22:19.621Z,0
2018-02-20T01:23:19.887Z,0
2018-02-20T01:24:19.901Z,0
2018-02-20T01:25:19.916Z,0
2018-02-20T01:26:19.928Z,0
2018-02-20T01:27:34.352Z,0
2018-02-20T01:28:19.954Z,0
2018-02-20T01:29:34.380Z,0
2018-02-20T01:30:34.641Z,0
2018-02-20T01:31:34.399Z,0
2018-02-20T01:32:19.752Z,0
2018-02-20T01:33:20.020Z,0
2018-02-20T01:34:20.030Z,0
2018-02-20T01:35:20.039Z,0
2018-02-20T01:36:19.797Z,0
2018-02-20T01:37:20.066Z,0
2018-02-20T01:38:20.076Z,0
2018-02-20T01:39:20.084Z,0
2018-02-20T01:40:20.107Z,0
2018-02-20T01:41:19.866Z,0
2018-02-20T01:42:19.880Z,0
2018-02-20T01:43:34.807Z,0
2018-02-20T01:44:34.820Z,0
2018-02-20T01:45:34.880Z,0
2018-02-20T01:46:34.588Z,0
2018-02-20T01:47:20.191Z,0
2018-02-20T01:48:20.216Z,0
2018-02-20T01:49:20.216Z,0
2018-02-20T01:50:20.222Z,0
2018-02-20T01:51:19.728Z,0
2018-02-20T01:52:20.257Z,0
2018-02-20T01:55:20.287Z,0
2018-02-20T01:56:20.050Z,0
2018-02-20T01:57:20.313Z,0
2018-02-20T01:58:20.371Z,0
2018-02-20T01:59:20.338Z,0
2018-02-20T02:00:20.351Z,0
2018-02-20T02:01:34.774Z,0
2018-02-20T02:03:34.799Z,0
2018-02-20T02:05:20.413Z,0
2018-02-20T02:06:20.430Z,0
2018-02-20T02:07:20.444Z,0
2018-02-20T02:08:20.194Z,0
2018-02-20T02:09:20.469Z,0
2018-02-20T02:10:19.965Z,0
2018-02-20T02:11:20.593Z,0
2018-02-20T02:12:20.244Z,0
2018-02-20T02:13:20.506Z,0
2018-02-20T02:14:20.525Z,0
2018-02-20T02:15:20.279Z,0
2018-02-20T02:16:35.222Z,0
2018-02-20T02:17:20.560Z,0
2018-02-20T02:18:20.325Z,0
2018-02-20T02:19:20.586Z,0
2018-02-20T02:20:20.596Z,0
2018-02-20T02:22:20.112Z,0
2018-02-20T02:24:20.645Z,0
2018-02-20T02:25:35.337Z,0
2018-02-20T02:26:20.678Z,0
2018-02-20T02:27:20.428Z,0
2018-02-20T02:28:20.705Z,0
2018-02-20T02:29:20.458Z,0
2018-02-20T02:30:20.477Z,0
2018-02-20T02:31:20.509Z,0
2018-02-20T02:32:35.422Z,0
2018-02-20T02:33:20.534Z,0
2018-02-20T02:34:20.782Z,0
2018-02-20T02:36:20.817Z,0
2018-02-20T02:37:20.810Z,0
2018-02-20T02:38:20.571Z,0
2018-02-20T02:39:20.584Z,0
2018-02-20T02:40:20.860Z,0
2018-02-20T02:41:35.275Z,0
2018-02-20T02:42:20.868Z,0
2018-02-20T02:43:20.893Z,0
2018-02-20T02:45:20.921Z,0
2018-02-20T02:46:20.923Z,0
2018-02-20T02:47:35.605Z,0
2018-02-20T02:48:35.371Z,0
2018-02-20T02:49:35.638Z,0
2018-02-20T02:50:35.642Z,0
2018-02-20T02:51:20.987Z,0
2018-02-20T02:52:21.013Z,0
2018-02-20T02:53:35.674Z,0
2018-02-20T02:54:21.026Z,0
2018-02-20T02:55:21.046Z,0
2018-02-20T02:56:20.793Z,0
2018-02-20T02:57:21.064Z,0
2018-02-20T02:58:20.838Z,0
2018-02-20T02:59:35.750Z,0
2018-02-20T03:00:21.103Z,0
2018-02-20T03:01:35.789Z,0
2018-02-20T03:02:21.124Z,0
2018-02-20T03:03:21.146Z,0
2018-02-20T03:04:35.554Z,0
2018-02-20T03:05:35.825Z,0
2018-02-20T03:06:21.169Z,0
2018-02-20T03:07:21.334Z,0
2018-02-20T03:08:35.855Z,0
2018-02-20T03:09:21.208Z,0
2018-02-20T03:10:20.963Z,0
2018-02-20T03:11:21.238Z,0
2018-02-20T03:12:21.241Z,0
2018-02-20T03:13:20.998Z,0
2018-02-20T03:14:21.263Z,0
2018-02-20T03:15:21.273Z,0
2018-02-20T03:16:21.284Z,0
2018-02-20T03:17:21.047Z,0
2018-02-20T03:18:21.313Z,0
2018-02-20T03:19:35.741Z,0
2018-02-20T03:20:36.005Z,0
2018-02-20T03:21:21.094Z,0
2018-02-20T03:22:21.370Z,0
2018-02-20T03:23:21.375Z,0
2018-02-20T03:24:36.064Z,0
2018-02-20T03:25:21.144Z,0
2018-02-20T03:26:21.415Z,0
2018-02-20T03:27:21.166Z,0
2018-02-20T03:28:21.439Z,0
2018-02-20T03:29:21.449Z,0
2018-02-20T03:30:21.225Z,0
2018-02-20T03:31:21.492Z,0
2018-02-20T03:32:20.975Z,0
2018-02-20T03:33:21.498Z,0
2018-02-20T03:34:21.516Z,0
2018-02-20T03:35:36.186Z,0
2018-02-20T03:36:36.200Z,0
2018-02-20T03:37:21.548Z,0
2018-02-20T03:38:21.562Z,0
2018-02-20T03:40:21.583Z,0
2018-02-20T03:41:21.595Z,0
2018-02-20T03:43:21.615Z,0
2018-02-20T03:44:21.740Z,0
2018-02-20T03:45:21.648Z,0
2018-02-20T03:46:21.655Z,0
2018-02-20T03:47:21.157Z,0
2018-02-20T03:48:21.680Z,0
2018-02-20T03:49:21.442Z,0
2018-02-20T03:50:21.702Z,0
2018-02-20T03:51:36.385Z,0
2018-02-20T03:52:21.736Z,0
2018-02-20T03:53:21.741Z,0
2018-02-20T03:54:36.426Z,0
2018-02-20T03:55:21.510Z,0
2018-02-20T03:56:21.523Z,0
2018-02-20T03:57:21.796Z,0
2018-02-20T03:58:21.819Z,0
2018-02-20T03:59:21.558Z,0
2018-02-20T04:00:21.834Z,0
2018-02-20T04:01:21.836Z,0
2018-02-20T04:02:21.847Z,0
2018-02-20T04:03:21.860Z,0
2018-02-20T04:04:21.880Z,0
2018-02-20T04:05:21.889Z,0
2018-02-20T04:06:36.569Z,0
2018-02-20T04:08:21.667Z,0
2018-02-20T04:09:21.932Z,0
2018-02-20T04:10:21.960Z,0
2018-02-20T04:11:21.700Z,0
2018-02-20T04:12:21.969Z,0
2018-02-20T04:13:21.982Z,0
2018-02-20T04:14:36.667Z,0
2018-02-20T04:15:21.755Z,0
2018-02-20T04:16:22.016Z,0
2018-02-20T04:17:36.701Z,0
2018-02-20T04:18:22.045Z,0
2018-02-20T04:19:21.798Z,0
2018-02-20T04:20:22.063Z,0
2018-02-20T04:21:21.836Z,0
2018-02-20T04:22:22.100Z,0
2018-02-20T04:25:21.886Z,0
2018-02-20T04:26:36.550Z,0
2018-02-20T04:27:22.152Z,0
2018-02-20T04:29:22.177Z,0
2018-02-20T04:30:22.185Z,0
2018-02-20T04:31:22.255Z,0
2018-02-20T04:32:22.217Z,0
2018-02-20T04:33:22.222Z,0
2018-02-20T04:35:36.915Z,0
2018-02-20T04:36:36.928Z,0
2018-02-20T04:37:36.936Z,0
2018-02-20T04:38:22.296Z,0
2018-02-20T04:39:36.965Z,0
2018-02-20T04:40:36.968Z,0
2018-02-20T04:41:36.983Z,0
2018-02-20T04:42:36.991Z,0
2018-02-20T04:43:22.388Z,0
2018-02-20T04:44:22.096Z,0
2018-02-20T04:45:22.367Z,0
2018-02-20T04:46:22.118Z,0
2018-02-20T04:47:22.391Z,0
2018-02-20T04:48:22.150Z,0
2018-02-20T04:49:22.419Z,0
2018-02-20T04:50:22.171Z,0
2018-02-20T04:51:22.180Z,0
2018-02-20T04:52:22.458Z,0
2018-02-20T04:53:37.134Z,0
2018-02-20T04:54:37.143Z,0
2018-02-20T04:55:22.487Z,0
2018-02-20T04:56:22.242Z,0
2018-02-20T04:57:22.248Z,0
2018-02-20T04:58:22.263Z,0
2018-02-20T04:59:22.543Z,0
2018-02-20T05:00:22.593Z,0
2018-02-20T05:01:22.553Z,0
2018-02-20T05:02:22.570Z,0
2018-02-20T05:03:22.586Z,0
2018-02-20T05:04:22.346Z,0
2018-02-20T05:05:22.606Z,0
2018-02-20T05:06:22.360Z,0
2018-02-20T05:07:36.784Z,0
2018-02-20T05:08:22.688Z,0
2018-02-20T05:09:37.328Z,0
2018-02-20T05:10:36.820Z,0
2018-02-20T05:11:37.344Z,0
2018-02-20T05:12:22.428Z,0
2018-02-20T05:13:22.709Z,0
2018-02-20T05:14:22.202Z,0
2018-02-20T05:15:22.470Z,0
2018-02-20T05:16:22.785Z,0
2018-02-20T05:17:22.504Z,0
2018-02-20T05:18:37.176Z,0
2018-02-20T05:19:22.875Z,0
2018-02-20T05:20:37.455Z,0
2018-02-20T05:21:22.794Z,0
2018-02-20T05:22:22.549Z,0
2018-02-20T05:23:37.487Z,0
2018-02-20T05:24:22.825Z,0
2018-02-20T05:25:37.508Z,0
2018-02-20T05:26:37.530Z,0
2018-02-20T05:27:22.609Z,0
2018-02-20T05:28:22.627Z,0
2018-02-20T05:29:22.645Z,0
2018-02-20T05:30:22.910Z,0
2018-02-20T05:32:22.931Z,0
2018-02-20T05:33:22.690Z,0
2018-02-20T05:34:22.696Z,0
2018-02-20T05:35:22.965Z,0
2018-02-20T05:36:22.975Z,0
2018-02-20T05:37:22.472Z,0
2018-02-20T05:39:22.751Z,0
2018-02-20T05:40:23.021Z,0
2018-02-20T05:41:23.033Z,0
2018-02-20T05:42:37.726Z,0
2018-02-20T05:43:37.729Z,0
2018-02-20T05:44:37.745Z,0
2018-02-20T05:45:23.080Z,0
2018-02-20T05:46:37.755Z,0
2018-02-20T05:47:23.110Z,0
2018-02-20T05:48:22.862Z,0
2018-02-20T05:49:23.132Z,0
2018-02-20T05:50:23.148Z,0
2018-02-20T05:51:23.155Z,0
2018-02-20T05:52:22.913Z,0
2018-02-20T05:53:23.180Z,0
2018-02-20T05:54:23.180Z,0
2018-02-20T05:55:23.198Z,0
2018-02-20T05:56:37.628Z,0
2018-02-20T05:57:37.893Z,0
2018-02-20T05:58:37.647Z,0
2018-02-20T05:59:37.921Z,0
2018-02-20T06:00:23.261Z,0
2018-02-20T06:01:37.938Z,0
2018-02-20T06:02:23.027Z,0
2018-02-20T06:03:23.039Z,0
2018-02-20T06:04:38.018Z,0
2018-02-20T06:05:23.320Z,0
2018-02-20T06:06:23.334Z,0
2018-02-20T06:07:38.017Z,0
2018-02-20T06:08:23.356Z,0
2018-02-20T06:09:23.364Z,0
2018-02-20T06:10:23.376Z,0
2018-02-20T06:11:23.133Z,0
2018-02-20T06:12:23.142Z,0
2018-02-20T06:13:23.417Z,0
2018-02-20T06:16:23.450Z,5
2018-02-20T06:17:37.875Z,5
2018-02-20T06:18:23.469Z,5
2018-02-20T06:19:23.483Z,5
2018-02-20T06:20:23.496Z,5
2018-02-20T06:21:23.250Z,5
2018-02-20T06:22:23.519Z,5
2018-02-20T06:23:23.543Z,10
2018-02-20T06:24:37.959Z,10
2018-02-20T06:26:23.565Z,10
2018-02-20T06:27:23.328Z,10
2018-02-20T06:28:23.621Z,15
2018-02-20T06:30:23.467Z,15
2018-02-20T06:32:23.382Z,20
2018-02-20T06:33:23.652Z,20
2018-02-20T06:34:23.667Z,20
2018-02-20T06:35:23.778Z,20
2018-02-20T06:36:23.693Z,20
2018-02-20T06:37:23.705Z,20
2018-02-20T06:38:23.716Z,25
2018-02-20T06:39:23.724Z,30
2018-02-20T06:40:23.737Z,30
2018-02-20T06:41:38.424Z,40
2018-02-20T06:42:23.504Z,40
2018-02-20T06:43:23.516Z,45
2018-02-20T06:44:23.531Z,40
2018-02-20T06:45:38.513Z,45
2018-02-20T06:46:23.808Z,45
2018-02-20T06:47:38.490Z,45
2018-02-20T06:48:38.494Z,45
2018-02-20T06:49:23.854Z,50
2018-02-20T06:50:23.852Z,50
2018-02-20T06:51:23.615Z,55
2018-02-20T06:52:23.883Z,55
2018-02-20T06:53:23.894Z,55
2018-02-20T06:54:23.909Z,60
2018-02-20T06:55:38.735Z,60
2018-02-20T06:56:23.928Z,65
2018-02-20T06:57:23.948Z,65
2018-02-20T06:58:23.953Z,70
2018-02-20T06:59:38.733Z,70
2018-02-20T07:00:23.980Z,75
2018-02-20T07:01:38.440Z,75
2018-02-20T07:02:38.670Z,80
2018-02-20T07:03:23.766Z,80
2018-02-20T07:04:38.695Z,100
2018-02-20T07:05:23.790Z,115
2018-02-20T07:07:23.828Z,160
2018-02-20T07:08:23.823Z,170
2018-02-20T07:09:23.847Z,175
2018-02-20T07:10:23.850Z,180
2018-02-20T07:11:38.800Z,195
2018-02-20T07:12:38.547Z,195
2018-02-20T07:13:38.814Z,195
2018-02-20T07:14:24.163Z,200
2018-02-20T07:15:24.172Z,205
2018-02-20T07:16:24.189Z,205
2018-02-20T07:17:39.054Z,215
2018-02-20T07:18:23.962Z,215
2018-02-20T07:19:24.234Z,200
2018-02-20T07:20:24.348Z,165
2018-02-20T07:21:38.953Z,130
2018-02-20T07:22:24.292Z,125
2018-02-20T07:23:24.299Z,125
2018-02-20T07:24:24.303Z,125
2018-02-20T07:25:24.071Z,125
2018-02-20T07:26:24.343Z,125
2018-02-20T07:27:24.361Z,125
2018-02-20T07:28:23.855Z,125
2018-02-20T07:29:24.131Z,125
2018-02-20T07:30:39.065Z,125
2018-02-20T07:31:38.827Z,125
2018-02-20T07:32:24.171Z,125
2018-02-20T07:33:39.110Z,125
2018-02-20T07:34:39.127Z,120
2018-02-20T07:35:24.482Z,120
2018-02-20T07:36:38.901Z,125
2018-02-20T07:37:24.560Z,130
2018-02-20T07:38:24.273Z,125
2018-02-20T07:39:24.534Z,125
2018-02-20T07:40:24.298Z,125
2018-02-20T07:41:24.570Z,130
2018-02-20T07:42:24.585Z,130
2018-02-20T07:43:24.620Z,135
2018-02-20T07:44:24.103Z,135
2018-02-20T07:45:24.373Z,140
2018-02-20T07:46:24.651Z,140
2018-02-20T07:47:24.148Z,140
2018-02-20T07:48:24.422Z,140
2018-02-20T07:51:24.737Z,145
2018-02-20T07:52:24.742Z,150
2018-02-20T07:53:24.753Z,150
2018-02-20T07:54:24.264Z,150
2018-02-20T07:55:24.783Z,155
2018-02-20T07:56:24.806Z,155
2018-02-20T07:57:24.562Z,155
2018-02-20T07:58:24.945Z,155
2018-02-20T07:59:24.851Z,160
2018-02-20T08:00:24.919Z,155
2018-02-20T08:01:24.879Z,155
2018-02-20T08:02:24.386Z,155
2018-02-20T08:03:24.658Z,155
2018-02-20T08:04:39.598Z,160
2018-02-20T08:05:39.609Z,160
2018-02-20T08:06:24.958Z,160
2018-02-20T08:07:24.726Z,160
2018-02-20T08:08:24.746Z,160
2018-02-20T08:09:24.752Z,160
2018-02-20T08:10:39.680Z,160
2018-02-20T08:11:39.457Z,165
2018-02-20T08:12:24.795Z,165
2018-02-20T08:13:24.817Z,160
2018-02-20T08:14:24.826Z,165
2018-02-20T08:15:24.842Z,165
2018-02-20T08:16:25.116Z,165
2018-02-20T08:17:25.157Z,165
2018-02-20T08:18:24.897Z,165
2018-02-20T08:19:24.902Z,165
2018-02-20T08:20:39.846Z,170
2018-02-20T08:21:39.604Z,170
2018-02-20T08:22:25.208Z,170
2018-02-20T08:23:25.231Z,165
2018-02-20T08:24:25.234Z,165
2018-02-20T08:25:25.257Z,160
2018-02-20T08:26:24.755Z,165
2018-02-20T08:27:25.026Z,170
2018-02-20T08:28:24.785Z,175
2018-02-20T08:29:25.059Z,175
2018-02-20T08:30:25.076Z,170
2018-02-20T08:32:25.365Z,175
2018-02-20T08:33:25.381Z,185
2018-02-20T08:34:25.391Z,175
2018-02-20T08:35:25.408Z,170
2018-02-20T08:37:25.184Z,175
2018-02-20T08:38:40.123Z,175
2018-02-20T08:39:25.214Z,175
2018-02-20T08:40:40.035Z,180
2018-02-20T08:41:25.502Z,180
2018-02-20T08:42:25.359Z,180
2018-02-20T08:43:25.533Z,175
2018-02-20T08:44:25.544Z,170
2018-02-20T08:45:25.559Z,180
2018-02-20T08:46:25.580Z,175
2018-02-20T08:47:25.598Z,170
2018-02-20T08:48:25.606Z,175
2018-02-20T08:49:25.642Z,175
2018-02-20T08:50:40.054Z,170
2018-02-20T08:51:40.068Z,170
2018-02-20T08:52:40.341Z,170
2018-02-20T08:53:40.097Z,170
2018-02-20T08:54:40.370Z,170
2018-02-20T08:56:25.478Z,170
2018-02-20T08:58:25.773Z,160
2018-02-20T08:59:25.783Z,165
2018-02-20T09:00:25.800Z,160
2018-02-20T09:01:25.559Z,160
2018-02-20T09:02:25.926Z,155
2018-02-20T09:03:25.842Z,155
2018-02-20T09:04:25.602Z,160
2018-02-20T09:05:25.619Z,160
2018-02-20T09:06:25.893Z,165
2018-02-20T09:07:25.904Z,160
2018-02-20T09:08:40.585Z,160
2018-02-20T09:09:25.425Z,160
2018-02-20T09:10:40.625Z,160
2018-02-20T09:11:40.697Z,155
2018-02-20T09:12:25.983Z,160
2018-02-20T09:13:25.748Z,155
2018-02-20T09:14:26.020Z,155
2018-02-20T09:15:26.032Z,155
2018-02-20T09:16:25.794Z,155
2018-02-20T09:17:25.805Z,150
2018-02-20T09:18:26.082Z,150
2018-02-20T09:19:40.765Z,150
2018-02-20T09:20:40.531Z,150
2018-02-20T09:21:40.796Z,150
2018-02-20T09:22:40.838Z,150
2018-02-20T09:23:26.217Z,145
2018-02-20T09:25:40.857Z,145
2018-02-20T09:26:25.954Z,145
2018-02-20T09:27:40.887Z,145
2018-02-20T09:28:26.238Z,145
2018-02-20T09:29:40.928Z,140
2018-02-20T09:30:26.266Z,140
2018-02-20T09:31:25.795Z,140
2018-02-20T09:33:26.055Z,140
2018-02-20T09:34:26.333Z,140
2018-02-20T09:35:26.350Z,135
2018-02-20T09:36:40.828Z,135
2018-02-20T09:37:26.125Z,135
2018-02-20T09:38:41.068Z,130
2018-02-20T09:40:26.727Z,130
2018-02-20T09:41:26.450Z,135
2018-02-20T09:42:26.200Z,135
2018-02-20T09:43:26.487Z,130
2018-02-20T09:44:26.244Z,130
2018-02-20T09:45:26.256Z,130
2018-02-20T09:46:26.269Z,130
2018-02-20T09:47:26.545Z,130
2018-02-20T09:48:26.297Z,130
2018-02-20T09:49:26.577Z,130
2018-02-20T09:50:26.590Z,130
2018-02-20T09:51:26.702Z,130
2018-02-20T09:52:41.035Z,130
2018-02-20T09:53:26.632Z,125
2018-02-20T09:55:26.156Z,125
2018-02-20T09:57:41.367Z,130
2018-02-20T09:58:26.461Z,130
2018-02-20T09:59:26.488Z,125
2018-02-20T10:00:26.491Z,125
2018-02-20T10:01:26.766Z,125
2018-02-20T10:02:26.790Z,120
2018-02-20T10:03:26.542Z,120
2018-02-20T10:04:26.559Z,120
2018-02-20T10:05:26.835Z,120
2018-02-20T10:06:26.847Z,120
2018-02-20T10:08:41.551Z,125
2018-02-20T10:09:26.642Z,125
2018-02-20T10:10:26.911Z,125
2018-02-20T10:11:41.598Z,125
2018-02-20T10:12:41.612Z,130
2018-02-20T10:13:41.115Z,130
2018-02-20T10:14:41.639Z,130
2018-02-20T10:15:26.733Z,130
2018-02-20T10:16:27.144Z,130
2018-02-20T10:17:26.769Z,130
2018-02-20T10:18:26.532Z,135
2018-02-20T10:19:27.059Z,135
2018-02-20T10:21:26.833Z,140
2018-02-20T10:22:26.847Z,140
2018-02-20T10:23:26.921Z,140
2018-02-20T10:24:27.133Z,140
2018-02-20T10:25:26.999Z,140
2018-02-20T10:26:26.928Z,140
2018-02-20T10:27:41.597Z,140
2018-02-20T10:28:27.203Z,140
2018-02-20T10:29:27.214Z,140
2018-02-20T10:31:26.736Z,140
2018-02-20T10:32:27.267Z,140
2018-02-20T10:33:27.021Z,140
2018-02-20T10:34:26.789Z,140
2018-02-20T10:35:27.059Z,140
2018-02-20T10:36:27.325Z,140
2018-02-20T10:37:42.018Z,140
2018-02-20T10:38:27.356Z,140
2018-02-20T10:39:27.125Z,135
2018-02-20T10:40:27.137Z,135
2018-02-20T10:41:27.416Z,140
2018-02-20T10:42:42.090Z,135
2018-02-20T10:43:41.852Z,135
2018-02-20T10:44:42.120Z,135
2018-02-20T10:45:27.470Z,135
2018-02-20T10:46:27.240Z,130
2018-02-20T10:47:27.501Z,130
2018-02-20T10:48:27.266Z,130
2018-02-20T10:49:27.277Z,125
2018-02-20T10:51:27.319Z,125
2018-02-20T10:52:42.252Z,120
2018-02-20T10:53:27.344Z,120
2018-02-20T10:54:27.363Z,120
2018-02-20T10:55:27.628Z,120
2018-02-20T10:56:27.647Z,115
2018-02-20T10:57:27.711Z,115
2018-02-20T10:58:42.083Z,115
2018-02-20T10:59:42.359Z,115
2018-02-20T11:00:27.450Z,115
2018-02-20T11:01:27.722Z,115
2018-02-20T11:02:27.741Z,115
2018-02-20T11:03:27.240Z,115
2018-02-20T11:04:27.511Z,115
2018-02-20T11:05:27.811Z,115
2018-02-20T11:06:27.812Z,115
2018-02-20T11:07:27.824Z,115
2018-02-20T11:08:27.834Z,115
2018-02-20T11:09:27.600Z,110
2018-02-20T11:10:27.610Z,110
2018-02-20T11:11:27.879Z,110
2018-02-20T11:12:42.564Z,110
2018-02-20T11:13:27.997Z,110
2018-02-20T11:14:42.598Z,110
2018-02-20T11:15:42.618Z,110
2018-02-20T11:16:27.699Z,110
2018-02-20T11:17:27.715Z,110
2018-02-20T11:18:27.732Z,110
2018-02-20T11:20:27.507Z,110
2018-02-20T11:21:28.043Z,110
2018-02-20T11:22:28.055Z,110
2018-02-20T11:23:27.563Z,110
2018-02-20T11:24:28.090Z,110
2018-02-20T11:25:27.587Z,110
2018-02-20T11:26:28.110Z,110
2018-02-20T11:27:28.126Z,110
2018-02-20T11:28:28.145Z,110
2018-02-20T11:29:27.913Z,110
2018-02-20T11:30:27.916Z,110
2018-02-20T11:31:27.928Z,110
2018-02-20T11:32:28.005Z,110
2018-02-20T11:33:27.963Z,110
2018-02-20T11:34:28.238Z,110
2018-02-20T11:35:28.260Z,110
2018-02-20T11:36:28.013Z,110
2018-02-20T11:37:28.026Z,110
2018-02-20T11:38:27.532Z,110
2018-02-20T11:39:28.076Z,110
2018-02-20T11:40:57.464Z,110
2018-02-20T11:41:28.243Z,110
2018-02-20T11:42:28.106Z,110
2018-02-20T11:43:28.123Z,110
2018-02-20T11:44:42.803Z,110
2018-02-20T11:45:28.160Z,110
2018-02-20T11:46:43.096Z,110
2018-02-20T11:47:28.250Z,110
2018-02-20T11:48:28.207Z,110
2018-02-20T11:49:28.215Z,110
2018-02-20T11:50:28.232Z,110
2018-02-20T11:51:28.249Z,110
2018-02-20T11:52:28.517Z,105
2018-02-20T11:53:28.026Z,105
2018-02-20T11:54:43.223Z,105
2018-02-20T11:55:28.314Z,105
2018-02-20T11:56:28.326Z,105
2018-02-20T11:57:28.371Z,105
2018-02-20T11:58:28.359Z,105
2018-02-20T11:59:28.373Z,105
2018-02-20T12:00:28.387Z,105
2018-02-20T12:01:43.332Z,105
2018-02-20T12:02:43.090Z,105
2018-02-20T12:03:43.357Z,105
2018-02-20T12:04:28.448Z,105
2018-02-20T12:05:28.727Z,105
2018-02-20T12:06:28.740Z,105
2018-02-20T12:07:43.414Z,105
2018-02-20T12:08:28.769Z,110
2018-02-20T12:09:28.786Z,105
2018-02-20T12:10:28.804Z,105
2018-02-20T12:11:28.564Z,105
2018-02-20T12:13:28.586Z,105
2018-02-20T12:14:28.872Z,105
2018-02-20T12:15:28.628Z,105
2018-02-20T12:16:28.892Z,105
2018-02-20T12:17:28.650Z,105
2018-02-20T12:18:43.589Z,105
2018-02-20T12:19:43.353Z,105
2018-02-20T12:20:29.069Z,105
2018-02-20T12:21:28.975Z,105
2018-02-20T12:22:28.731Z,105
2018-02-20T12:23:28.747Z,105
2018-02-20T12:24:43.692Z,105
2018-02-20T12:25:28.776Z,105
2018-02-20T12:26:28.791Z,105
2018-02-20T12:27:43.738Z,105
2018-02-20T12:28:28.567Z,105
2018-02-20T12:29:28.582Z,105
2018-02-20T12:30:29.113Z,105
2018-02-20T12:31:28.868Z,105
2018-02-20T12:32:28.624Z,105
2018-02-20T12:33:29.148Z,105
2018-02-20T12:34:43.331Z,105
2018-02-20T12:35:43.862Z,100
2018-02-20T12:36:28.952Z,105
2018-02-20T12:37:28.959Z,100
2018-02-20T12:38:28.979Z,100
2018-02-20T12:39:29.255Z,100
2018-02-20T12:40:29.267Z,100
2018-02-20T12:41:29.287Z,105
2018-02-20T12:42:29.050Z,105
2018-02-20T12:43:29.313Z,105
2018-02-20T12:44:28.814Z,105
2018-02-20T12:45:29.091Z,105
2018-02-20T12:46:29.368Z,105
2018-02-20T12:47:29.115Z,105
2018-02-20T12:48:29.129Z,105
2018-02-20T12:49:44.071Z,105
2018-02-20T12:50:28.909Z,105
2018-02-20T12:51:29.470Z,105
2018-02-20T12:52:28.688Z,105
2018-02-20T12:53:29.540Z,105
2018-02-20T12:54:29.490Z,110
2018-02-20T12:56:29.513Z,105
2018-02-20T12:57:29.529Z,105
2018-02-20T12:58:29.539Z,100
2018-02-20T12:59:43.972Z,105
2018-02-20T13:00:29.324Z,105
2018-02-20T13:01:29.331Z,105
2018-02-20T13:02:29.605Z,105
2018-02-20T13:03:29.627Z,100
2018-02-20T13:04:29.742Z,105
2018-02-20T13:05:29.574Z,105
2018-02-20T13:06:29.474Z,105
2018-02-20T13:07:29.682Z,105
2018-02-20T13:09:28.951Z,105
2018-02-20T13:10:29.536Z,105
2018-02-20T13:11:29.747Z,100
2018-02-20T13:12:29.510Z,100
2018-02-20T13:13:29.775Z,100
2018-02-20T13:14:29.535Z,100
2018-02-20T13:15:44.475Z,100
2018-02-20T13:16:29.824Z,100
2018-02-20T13:17:29.835Z,100
2018-02-20T13:18:29.856Z,100
2018-02-20T13:19:29.610Z,100
2018-02-20T13:20:29.999Z,100
2018-02-20T13:21:44.308Z,100
2018-02-20T13:22:29.657Z,100
2018-02-20T13:23:44.339Z,100
2018-02-20T13:24:29.786Z,100
2018-02-20T13:25:29.956Z,100
2018-02-20T13:26:29.981Z,100
2018-02-20T13:27:29.735Z,100
2018-02-20T13:28:30.008Z,100
2018-02-20T13:29:30.028Z,100
2018-02-20T13:30:29.275Z,100
2018-02-20T13:31:30.096Z,100
2018-02-20T13:32:44.738Z,100
2018-02-20T13:33:30.082Z,100
2018-02-20T13:34:30.200Z,100
2018-02-20T13:35:44.781Z,95
2018-02-20T13:36:30.131Z,95
2018-02-20T13:37:44.820Z,95
2018-02-20T13:38:29.907Z,95
2018-02-20T13:39:30.194Z,95
2018-02-20T13:40:44.858Z,95
2018-02-20T13:41:30.205Z,95
2018-02-20T13:43:29.826Z,95
2018-02-20T13:44:30.259Z,95
2018-02-20T13:45:30.016Z,95
2018-02-20T13:46:29.775Z,95
2018-02-20T13:47:30.042Z,95
2018-02-20T13:48:29.903Z,95
2018-02-20T13:50:30.098Z,95
2018-02-20T13:51:30.360Z,90
2018-02-20T13:52:30.121Z,95
2018-02-20T13:53:45.060Z,100
2018-02-20T13:54:45.072Z,90
2018-02-20T13:55:45.088Z,90
2018-02-20T13:56:30.182Z,95
2018-02-20T13:57:30.450Z,95
2018-02-20T13:58:30.218Z,90
2018-02-20T13:59:30.482Z,90
2018-02-20T14:00:45.171Z,90
2018-02-20T14:02:30.529Z,90
2018-02-20T14:03:30.556Z,90
2018-02-20T14:04:30.302Z,90
2018-02-20T14:05:30.326Z,90
2018-02-20T14:06:45.257Z,90
2018-02-20T14:07:45.273Z,90
2018-02-20T14:08:30.625Z,90
2018-02-20T14:09:45.049Z,85
2018-02-20T14:10:59.990Z,80
2018-02-20T14:11:30.416Z,85
2018-02-20T14:12:30.681Z,90
2018-02-20T14:13:30.702Z,90
2018-02-20T14:14:30.461Z,90
2018-02-20T14:15:30.465Z,85
2018-02-20T14:16:30.488Z,85
2018-02-20T14:17:30.760Z,80
2018-02-20T14:18:30.523Z,90
2018-02-20T14:19:30.530Z,90
2018-02-20T14:21:30.823Z,90
2018-02-20T14:22:30.832Z,85
2018-02-20T14:23:30.598Z,85
2018-02-20T14:24:45.538Z,85
2018-02-20T14:25:30.957Z,85
2018-02-20T14:26:30.899Z,85
2018-02-20T14:27:30.656Z,85
2018-02-20T14:28:30.927Z,85
2018-02-20T14:29:30.692Z,85
2018-02-20T14:30:30.701Z,80
2018-02-20T14:31:30.463Z,80
2018-02-20T14:32:30.986Z,80
2018-02-20T14:33:31.010Z,80
2018-02-20T14:34:45.437Z,80
2018-02-20T14:35:31.027Z,80
2018-02-20T14:36:31.047Z,75
2018-02-20T14:37:45.475Z,80
2018-02-20T14:38:30.824Z,80
2018-02-20T14:39:31.105Z,80
2018-02-20T14:40:30.603Z,80
2018-02-20T14:41:30.872Z,80
2018-02-20T14:42:45.812Z,80
2018-02-20T14:43:31.159Z,80
2018-02-20T14:44:30.915Z,80
2018-02-20T14:45:30.935Z,80
2018-02-20T14:46:45.618Z,75
2018-02-20T14:47:30.960Z,75
2018-02-20T14:48:30.972Z,75
2018-02-20T14:49:30.734Z,75
2018-02-20T14:50:31.265Z,75
2018-02-20T14:51:31.020Z,75
2018-02-20T14:52:31.296Z,75
2018-02-20T14:53:31.048Z,75
2018-02-20T14:54:31.065Z,75
2018-02-20T14:55:31.338Z,75
2018-02-20T14:56:46.030Z,70
2018-02-20T14:57:31.122Z,70
2018-02-20T14:58:31.125Z,70
2018-02-20T14:59:31.138Z,70
2018-02-20T15:00:31.412Z,70
2018-02-20T15:04:31.474Z,70
2018-02-20T15:05:31.499Z,65
2018-02-20T15:07:45.932Z,65
2018-02-20T15:08:31.301Z,65
2018-02-20T15:09:31.293Z,65
2018-02-20T15:10:31.310Z,65
2018-02-20T15:11:46.243Z,65
2018-02-20T15:12:46.266Z,60
2018-02-20T15:13:46.288Z,60